Time;durP1;ratioP1;P1;durP2;ratioP2;P2;SDS_P1;SDS_P2;PMS_P1;PMS_P2;Temp;Humidity;BMP_temperature;BMP_pressure;BME280_temperature;BME280_humidity;BME280_pressure;Samples;Min_cycle;Max_cycle;Signal;HPM_P1;HPM_P2
2022/01/26 00:07:22;;;;;;;5.08;4.67;;;;;;;19.73;35.08;100696.28;1802548;78;28398;-73
2022/01/26 00:10:11;;;;;;;5.10;4.60;;;;;;;19.72;35.07;100689.67;1806859;78;28273;-73
2022/01/26 00:13:00;;;;;;;4.97;4.47;;;;;;;19.73;35.06;100688.11;1811485;78;28472;-73
2022/01/26 00:15:48;;;;;;;4.42;4.12;;;;;;;19.75;35.08;100687.91;1810588;78;29750;-73
2022/01/26 00:18:38;;;;;;;4.67;4.10;;;;;;;19.72;35.08;100690.48;1808642;78;28226;-74
2022/01/26 00:21:31;;;;;;;4.67;4.28;;;;;;;19.74;35.06;100684.87;1810217;78;28234;-74
2022/01/26 00:27:26;;;;;;;4.70;4.30;;;;;;;19.74;35.03;100680.24;1800890;78;28767;-73
2022/01/26 00:39:04;;;;;;;4.80;4.40;;;;;;;19.75;35.03;100685.19;1807022;78;28350;-73
2022/01/26 00:41:57;;;;;;;5.42;4.15;;;;;;;19.72;35.04;100685.04;1770875;79;28399;-73
2022/01/26 00:44:46;;;;;;;4.75;4.20;;;;;;;19.73;35.04;100683.16;1802968;79;28301;-75
2022/01/26 00:47:33;;;;;;;4.60;4.20;;;;;;;19.72;35.02;100684.22;1842794;77;28109;-75
2022/01/26 00:50:22;;;;;;;4.58;4.17;;;;;;;19.72;35.01;100682.86;1854125;77;28198;-74
2022/01/26 00:53:11;;;;;;;4.40;4.00;;;;;;;19.74;35.00;100686.23;1831178;77;31177;-75
2022/01/26 00:56:00;;;;;;;4.53;4.12;;;;;;;19.73;35.07;100684.53;1841072;76;28235;-76
2022/01/26 00:58:49;;;;;;;4.90;4.40;;;;;;;19.73;35.05;100684.53;1853444;76;28075;-76
2022/01/26 01:01:37;;;;;;;4.67;4.28;;;;;;;19.74;35.01;100683.51;1840813;77;28171;-74
2022/01/26 01:04:26;;;;;;;4.70;4.20;;;;;;;19.74;35.00;100673.97;1851110;77;28183;-75
2022/01/26 01:07:19;;;;;;;4.47;4.03;;;;;;;19.74;35.00;100675.33;1857480;76;28138;-74
2022/01/26 01:10:04;;;;;;;4.70;4.30;;;;;;;19.73;35.00;100670.39;1844015;76;28231;-74
2022/01/26 01:12:57;;;;;;;4.47;4.15;;;;;;;19.74;34.99;100668.52;1849588;76;28083;-74
2022/01/26 01:15:43;;;;;;;4.40;4.00;;;;;;;19.74;34.97;100672.61;1846837;76;28137;-75
2022/01/26 01:26:03;;;;;;;4.33;4.03;;;;;;;19.69;35.04;100673.68;1860118;76;28056;-75
2022/01/26 01:30:39;;;;;;;4.25;3.85;;;;;;;19.68;35.04;100670.61;1843139;76;28229;-75
2022/01/26 01:33:26;;;;;;;4.33;3.92;;;;;;;19.69;35.03;100671.80;1853219;76;28258;-74
2022/01/26 01:36:11;;;;;;;4.35;3.95;;;;;;;19.68;35.03;100676.06;1842093;77;28215;-76
2022/01/26 01:39:00;;;;;;;4.58;4.20;;;;;;;19.70;35.01;100680.30;1846904;77;28180;-74
2022/01/26 01:41:51;;;;;;;4.55;4.15;;;;;;;19.72;35.01;100678.22;1831328;77;28244;-73
2022/01/26 01:44:39;;;;;;;4.35;3.90;;;;;;;19.72;35.00;100674.67;1852656;76;28125;-74
2022/01/26 01:47:28;;;;;;;4.27;3.87;;;;;;;19.72;34.94;100682.31;1842387;77;28115;-76
2022/01/26 01:50:17;;;;;;;4.00;3.70;;;;;;;19.69;34.97;100684.58;1847054;77;28177;-74
2022/01/26 01:53:06;;;;;;;4.37;3.98;;;;;;;19.71;34.99;100685.23;1835209;77;28147;-74
2022/01/26 01:55:55;;;;;;;4.13;3.83;;;;;;;19.69;34.96;100688.67;1830317;77;28235;-74
2022/01/26 07:12:29;;;;;;;8.05;5.08;;;;;;;14.30;43.71;100714.33;1932631;72;28244;-74
2022/01/26 07:21:30;;;;;;;6.37;4.50;;;;;;;16.34;40.77;100732.34;1902480;75;32009;-71
2022/01/26 07:24:19;;;;;;;4.92;4.50;;;;;;;16.93;39.74;100731.34;1902291;75;28015;-70
2022/01/26 07:27:07;;;;;;;4.97;4.30;;;;;;;17.39;38.90;100729.81;1908077;73;28063;-71
2022/01/26 07:29:58;;;;;;;7.80;4.50;;;;;;;17.75;38.13;100730.67;1913553;73;28194;-67
2022/01/26 07:32:46;;;;;;;5.05;4.25;;;;;;;18.10;37.59;100728.53;1902376;75;31013;-73
2022/01/26 07:35:36;;;;;;;5.15;4.08;;;;;;;18.29;37.28;100736.28;1902162;75;28222;-69
2022/01/26 07:38:26;;;;;;;5.00;4.50;;;;;;;18.51;37.13;100727.35;1902161;75;27996;-69
2022/01/26 07:41:14;;;;;;;4.85;4.35;;;;;;;18.72;36.85;100728.11;1922295;73;28030;-71
2022/01/26 07:44:04;;;;;;;4.85;4.33;;;;;;;18.89;36.53;100729.17;1916286;73;28072;-69
2022/01/26 07:46:54;;;;;;;4.60;4.10;;;;;;;19.04;36.27;100726.53;1875273;75;28161;-70
2022/01/26 07:49:42;;;;;;;4.63;4.20;;;;;;;19.15;35.99;100717.41;1924723;73;28462;-69
2022/01/26 07:52:35;;;;;;;5.70;4.20;;;;;;;19.24;35.79;100717.67;1920824;73;28142;-69
2022/01/26 07:55:22;;;;;;;5.60;4.35;;;;;;;19.31;35.68;100719.14;1923418;73;28062;-69
2022/01/26 07:58:12;;;;;;;4.90;4.10;;;;;;;19.38;35.56;100723.38;1902415;75;28138;-69
2022/01/26 08:01:01;;;;;;;4.80;4.30;;;;;;;19.45;35.44;100725.69;1902224;75;28103;-71
2022/01/26 08:03:49;;;;;;;5.78;4.00;;;;;;;19.53;35.36;100717.45;1902197;75;28025;-70
2022/01/26 08:06:38;;;;;;;4.12;3.83;;;;;;;19.55;35.24;100718.97;1902146;75;28082;-69
2022/01/26 08:09:26;;;;;;;4.67;4.10;;;;;;;19.59;35.19;100723.52;1924729;73;28164;-69
2022/01/26 08:12:16;;;;;;;5.08;4.17;;;;;;;19.61;35.17;100722.81;1918404;73;28160;-69
2022/01/26 08:15:07;;;;;;;4.15;3.77;;;;;;;19.66;35.14;100724.47;1906929;74;28126;-69
2022/01/26 08:17:58;;;;;;;4.00;3.70;;;;;;;19.68;35.08;100729.21;1890078;75;28139;-68
2022/01/26 08:20:46;;;;;;;5.40;4.00;;;;;;;19.71;35.09;100727.48;1895265;74;28093;-69
2022/01/26 08:23:37;;;;;;;4.00;3.67;;;;;;;19.74;35.05;100731.22;1913780;73;28080;-69
2022/01/26 08:26:34;;;;;;;4.20;3.80;;;;;;;19.77;35.05;100736.27;1889448;75;28125;-69
2022/01/26 08:29:27;;;;;;;4.47;3.70;;;;;;;19.79;35.00;100735.59;1889482;75;28185;-69
2022/01/26 08:32:06;;;;;;;4.10;3.80;;;;;;;19.80;35.05;100742.22;1915923;74;28031;-69
2022/01/26 08:34:54;;;;;;;4.47;3.90;;;;;;;19.80;35.18;100736.77;1935124;73;28035;-71
2022/01/26 08:37:42;;;;;;;4.67;3.87;;;;;;;19.79;35.19;100738.33;1918076;73;28097;-69
2022/01/26 08:40:33;;;;;;;4.20;3.80;;;;;;;19.81;35.25;100732.16;1890214;74;28498;-69
2022/01/26 08:43:21;;;;;;;4.00;3.60;;;;;;;19.81;35.31;100726.17;1916340;74;28156;-70
2022/01/26 08:46:10;;;;;;;5.12;3.87;;;;;;;19.83;35.30;100733.67;1935149;73;28047;-71
2022/01/26 08:48:58;;;;;;;4.57;3.63;;;;;;;19.85;35.32;100736.20;1889429;75;28072;-70
2022/01/26 08:51:49;;;;;;;4.10;3.70;;;;;;;19.87;35.27;100737.72;1910530;73;28139;-70
2022/01/26 08:54:36;;;;;;;4.15;3.72;;;;;;;19.90;35.21;100740.08;1897425;74;28210;-69
2022/01/26 08:57:25;;;;;;;4.10;3.70;;;;;;;19.91;35.20;100749.08;1889416;75;28134;-71
2022/01/26 09:00:16;;;;;;;4.80;3.70;;;;;;;19.89;35.18;100751.15;1889357;75;28166;-69
2022/01/26 09:03:05;;;;;;;6.90;4.00;;;;;;;19.88;35.16;100750.84;1931736;73;28026;-69
2022/01/26 09:05:54;;;;;;;4.37;3.75;;;;;;;19.87;35.16;100749.13;1911078;73;28165;-70
2022/01/26 09:08:45;;;;;;;4.42;3.80;;;;;;;19.88;35.15;100744.02;1889544;75;28247;-69
2022/01/26 09:11:37;;;;;;;4.20;3.80;;;;;;;19.90;35.12;100748.77;1889901;75;28162;-69
2022/01/26 09:14:28;;;;;;;4.40;4.00;;;;;;;19.91;35.08;100744.98;1919049;74;28110;-71
2022/01/26 09:17:15;;;;;;;4.00;3.62;;;;;;;19.93;35.07;100746.50;1814251;77;28294;-70
2022/01/26 09:20:06;;;;;;;3.90;3.60;;;;;;;19.91;35.04;100746.35;1823576;77;28207;-70
2022/01/26 09:22:55;;;;;;;4.05;3.65;;;;;;;19.90;35.03;100742.80;1907297;74;28234;-70
2022/01/26 09:25:43;;;;;;;4.15;3.75;;;;;;;19.90;35.05;100746.04;1916422;74;28052;-70
2022/01/26 09:28:32;;;;;;;3.80;3.50;;;;;;;19.93;35.00;100744.28;1897025;74;28246;-69
2022/01/26 09:31:20;;;;;;;4.08;3.67;;;;;;;19.88;35.00;100750.30;1899583;74;28105;-71
2022/01/26 09:34:08;;;;;;;3.90;3.52;;;;;;;19.90;35.02;100751.50;1895404;74;28125;-69
2022/01/26 09:36:58;;;;;;;4.20;3.65;;;;;;;19.93;34.93;100751.09;1911071;74;28125;-69
2022/01/26 09:39:48;;;;;;;4.10;3.70;;;;;;;19.92;34.97;100748.06;1916937;74;28102;-69
2022/01/26 09:42:37;;;;;;;3.77;3.40;;;;;;;19.94;34.87;100744.63;1887252;75;28223;-69
2022/01/26 09:45:25;;;;;;;3.80;3.50;;;;;;;19.93;34.88;100744.28;1909415;74;28191;-69
2022/01/26 09:48:14;;;;;;;5.10;3.75;;;;;;;19.94;34.84;100748.20;1890743;74;28152;-69
2022/01/26 09:51:03;;;;;;;3.90;3.50;;;;;;;19.96;34.85;100741.19;1895492;74;28252;-69
2022/01/26 09:54:10;;;;;;;3.67;3.37;;;;;;;19.96;34.83;100753.46;1902262;74;28044;-69
2022/01/26 09:57:02;;;;;;;4.57;3.47;;;;;;;19.95;34.85;100751.24;1900059;74;28099;-69
2022/01/26 09:59:48;;;;;;;3.90;3.60;;;;;;;19.93;34.83;100752.46;1897838;74;28099;-69
2022/01/26 10:02:39;;;;;;;3.83;3.52;;;;;;;19.92;34.84;100751.64;1897161;74;28262;-71
2022/01/26 10:05:29;;;;;;;4.00;3.70;;;;;;;19.94;34.82;100748.20;1900198;74;28132;-70
2022/01/26 10:17:31;;;;;;;3.87;3.47;;;;;;;19.96;34.77;100728.91;1906824;74;28171;-71
2022/01/26 10:20:19;;;;;;;3.67;3.40;;;;;;;19.94;34.80;100727.75;1907131;74;28172;-70
2022/01/26 10:23:13;;;;;;;4.03;3.62;;;;;;;19.96;34.74;100723.47;1921071;73;28055;-69
2022/01/26 10:26:06;;;;;;;3.62;3.33;;;;;;;19.94;34.76;100723.66;1905435;73;28161;-70
2022/01/26 10:28:57;;;;;;;3.87;3.47;;;;;;;19.98;34.72;100717.30;1906090;74;28211;-70
2022/01/26 10:31:46;;;;;;;3.80;3.50;;;;;;;19.95;34.75;100717.16;1907060;74;28137;-69
2022/01/26 10:34:34;;;;;;;3.80;3.50;;;;;;;19.99;34.70;100711.67;1907897;74;28230;-69
2022/01/26 10:37:22;;;;;;;3.87;3.30;;;;;;;19.97;34.69;100717.84;1907268;74;28050;-69
2022/01/26 10:40:19;;;;;;;3.50;3.20;;;;;;;19.99;34.67;100709.46;1911956;73;28123;-70
2022/01/26 10:43:14;;;;;;;3.58;3.22;;;;;;;20.00;34.65;100699.72;1914771;73;28160;-70
2022/01/26 10:46:06;;;;;;;3.92;3.37;;;;;;;19.99;34.59;100704.86;1907857;74;28125;-69
2022/01/26 10:49:07;;;;;;;3.63;3.33;;;;;;;19.97;34.65;100700.11;1907608;74;28060;-69
2022/01/26 10:54:38;;;;;;;3.58;3.27;;;;;;;20.09;34.50;100692.30;1912771;73;28160;-70
2022/01/26 10:57:28;;;;;;;3.58;3.27;;;;;;;20.09;34.48;100688.21;1907602;74;28159;-69
2022/01/26 11:00:17;;;;;;;3.47;3.17;;;;;;;20.07;34.48;100682.61;1904978;75;28266;-69
2022/01/26 11:03:07;;;;;;;3.55;3.00;;;;;;;20.05;34.48;100676.51;1905128;74;28170;-71
2022/01/26 11:05:56;;;;;;;3.35;3.15;;;;;;;20.06;34.49;100674.95;1928456;73;28511;-70
2022/01/26 11:08:45;;;;;;;3.25;3.00;;;;;;;20.08;34.46;100662.47;1907773;74;28311;-69
2022/01/26 11:11:33;;;;;;;3.62;3.33;;;;;;;20.06;34.45;100661.81;1907347;74;28087;-70
2022/01/26 11:14:22;;;;;;;3.37;3.17;;;;;;;20.06;34.44;100651.76;1926534;73;28187;-69
2022/01/26 11:17:14;;;;;;;3.80;3.30;;;;;;;20.05;34.50;100645.14;1889057;75;28165;-69
2022/01/26 11:20:05;;;;;;;3.42;3.12;;;;;;;20.02;34.51;100640.91;1889576;75;28220;-69
2022/01/26 11:22:59;;;;;;;3.55;3.25;;;;;;;20.00;34.52;100626.59;1901720;75;28067;-70
2022/01/26 11:25:50;;;;;;;3.73;3.43;;;;;;;19.98;34.51;100619.97;1924340;73;28124;-69
2022/01/26 11:28:41;;;;;;;3.33;3.13;;;;;;;19.99;34.57;100617.59;1889801;75;28137;-69
2022/01/26 11:31:33;;;;;;;3.30;3.10;;;;;;;20.02;34.52;100615.00;1901750;75;28075;-69
2022/01/26 11:34:21;;;;;;;3.30;3.00;;;;;;;20.05;34.47;100611.87;1901745;75;28048;-69
2022/01/26 11:37:19;;;;;;;3.10;2.90;;;;;;;20.05;34.47;100611.87;1911180;74;28166;-69
2022/01/26 11:46:11;;;;;;;3.30;3.00;;;;;;;20.03;34.47;100585.31;1901554;75;28176;-69
2022/01/26 11:49:06;;;;;;;3.60;3.27;;;;;;;20.01;34.44;100584.66;1903438;74;28042;-69
2022/01/26 11:51:57;;;;;;;3.40;3.10;;;;;;;20.05;34.45;100580.50;1889701;75;28135;-69
2022/01/26 11:54:57;;;;;;;3.85;3.50;;;;;;;20.04;34.46;100581.56;1908419;73;28085;-70
2022/01/26 11:57:50;;;;;;;3.00;2.80;;;;;;;20.04;34.38;100578.83;1919728;74;28124;-71
2022/01/26 12:00:50;;;;;;;3.40;3.10;;;;;;;20.06;34.37;100574.54;1909522;74;28391;-69
2022/01/26 12:03:43;;;;;;;3.23;2.97;;;;;;;20.04;34.40;100576.10;1918428;73;28189;-70
2022/01/26 12:06:35;;;;;;;3.70;3.20;;;;;;;20.05;34.39;100577.78;1889702;75;28175;-69
2022/01/26 12:09:22;;;;;;;3.47;3.17;;;;;;;20.09;34.32;100568.70;1889319;75;28578;-71
2022/01/26 12:12:13;;;;;;;3.10;2.90;;;;;;;20.07;34.32;100565.33;1889526;75;28214;-71
2022/01/26 12:15:10;;;;;;;3.40;3.10;;;;;;;20.07;34.32;100562.61;1889164;75;28132;-69
2022/01/26 12:18:15;;;;;;;3.72;3.00;;;;;;;20.08;34.32;100562.91;1896824;74;28102;-70
2022/01/26 12:37:00;;;;;;;3.42;2.98;;;;;;;20.05;34.30;100550.50;1876593;75;28176;-70
2022/01/26 12:43:05;;;;;;;3.12;2.90;;;;;;;20.05;34.33;100543.69;1865932;75;30170;-70
2022/01/26 12:45:52;;;;;;;3.25;3.05;;;;;;;20.03;34.36;100535.36;1887166;75;28144;-70
2022/01/26 12:48:42;;;;;;;3.03;2.83;;;;;;;20.05;34.35;100534.69;1866568;75;28166;-69
2022/01/26 12:51:33;;;;;;;3.30;3.00;;;;;;;20.06;34.28;100534.48;1865895;75;28124;-69
2022/01/26 12:54:22;;;;;;;3.22;2.92;;;;;;;20.10;34.22;100515.83;1865396;75;28317;-70
2022/01/26 12:57:12;;;;;;;2.92;2.72;;;;;;;20.10;34.23;100507.64;1871288;75;28188;-69
2022/01/26 13:00:06;;;;;;;3.00;2.80;;;;;;;20.09;34.21;100508.19;1855103;77;28229;-69
2022/01/26 13:02:54;;;;;;;2.85;2.65;;;;;;;20.10;34.17;100497.59;1876793;75;28177;-71
2022/01/26 13:05:43;;;;;;;3.02;2.83;;;;;;;20.12;34.18;100498.78;1876553;75;28125;-69
2022/01/26 13:08:47;;;;;;;3.00;2.80;;;;;;;20.14;34.14;100492.06;1871146;75;28145;-69
2022/01/26 13:11:38;;;;;;;3.08;2.87;;;;;;;20.10;34.16;100482.58;1860007;75;28126;-70
2022/01/26 13:14:39;;;;;;;2.95;2.75;;;;;;;20.07;34.20;100478.05;1865783;75;28158;-69
2022/01/26 13:29:42;;;;;;;2.90;2.70;;;;;;;20.06;34.19;100459.47;1868357;75;28239;-70
2022/01/26 13:35:15;;;;;;;2.90;2.70;;;;;;;20.13;34.14;100463.11;1869507;75;28215;-69
2022/01/26 13:38:16;;;;;;;3.00;2.80;;;;;;;20.12;34.11;100460.05;1900332;75;28148;-71
2022/01/26 13:50:08;;;;;;;3.50;3.20;;;;;;;20.11;34.07;100437.92;1867549;75;28215;-70
2022/01/26 14:01:27;;;;;;;3.13;2.93;;;;;;;20.14;34.07;100445.69;1857179;77;28126;-69
2022/01/26 14:04:17;;;;;;;3.30;2.72;;;;;;;20.13;34.03;100441.30;1878957;75;28717;-69
2022/01/26 14:07:06;;;;;;;3.10;2.80;;;;;;;20.11;34.05;100424.28;1874641;75;28241;-71
2022/01/26 14:09:55;;;;;;;3.10;2.80;;;;;;;20.13;34.00;100424.92;1869084;76;28166;-69
2022/01/26 14:12:47;;;;;;;2.95;2.75;;;;;;;20.16;33.99;100427.27;1868215;76;28193;-71
2022/01/26 14:15:42;;;;;;;3.27;2.80;;;;;;;20.17;33.93;100429.45;1879794;75;28189;-71
2022/01/26 14:27:07;;;;;;;2.85;2.65;;;;;;;20.15;33.95;100406.98;1889772;74;28137;-71
2022/01/26 14:51:04;;;;;;;2.75;2.55;;;;;;;20.11;34.00;100416.09;1874623;76;28226;-69
2022/01/26 15:09:04;;;;;;;2.58;2.37;;;;;;;20.13;33.93;100417.26;1878818;76;28235;-69
2022/01/26 15:30:13;;;;;;;2.62;2.42;;;;;;;20.10;33.98;100433.48;1880169;75;28243;-69
2022/01/26 15:51:05;;;;;;;2.27;2.17;;;;;;;20.06;34.00;100437.66;1869190;76;28125;-70
2022/01/26 16:06:19;;;;;;;2.22;2.12;;;;;;;20.02;34.03;100445.91;1868154;75;28149;-70
2022/01/26 16:21:43;;;;;;;2.98;2.40;;;;;;;20.03;34.02;100460.37;1888001;75;28105;-69
2022/01/26 18:15:29;;;;;;;2.30;2.20;;;;;;;19.90;33.95;100515.11;1866340;76;28160;-71
2022/01/26 18:51:57;;;;;;;2.72;2.40;;;;;;;19.90;33.78;100567.44;1869377;76;38989;-70
2022/01/26 18:54:45;;;;;;;2.70;2.50;;;;;;;19.89;33.79;100564.37;1874881;75;28160;-70
2022/01/26 18:57:33;;;;;;;2.50;2.30;;;;;;;19.90;33.78;100562.83;1880154;75;28724;-69
2022/01/26 19:00:22;;;;;;;2.57;2.47;;;;;;;19.93;33.76;100564.30;1869530;76;28360;-69
2022/01/26 19:03:12;;;;;;;2.30;2.20;;;;;;;19.90;33.71;100559.25;1895733;74;28223;-69
2022/01/26 19:06:02;;;;;;;2.58;2.47;;;;;;;19.91;33.68;100564.50;1890699;75;28169;-71
2022/01/26 19:08:50;;;;;;;2.67;2.45;;;;;;;19.91;33.68;100557.69;1890657;75;28156;-70
2022/01/26 19:11:39;;;;;;;2.52;2.40;;;;;;;19.92;33.70;100555.30;1869267;76;28164;-69
2022/01/26 19:14:34;;;;;;;2.42;2.22;;;;;;;19.90;33.68;100553.80;1891026;75;28207;-71
2022/01/26 19:17:24;;;;;;;2.70;2.50;;;;;;;19.91;33.65;100558.20;1873335;75;28184;-70
2022/01/26 19:20:35;;;;;;;2.70;2.50;;;;;;;19.93;33.64;100559.70;1881688;75;28232;-69
2022/01/26 19:26:07;;;;;;;2.60;2.40;;;;;;;19.94;33.65;100563.28;1869402;76;28113;-69
2022/01/26 19:28:59;;;;;;;2.62;2.42;;;;;;;19.91;33.61;100567.23;1878958;75;28273;-70
2022/01/26 19:44:18;;;;;;;2.57;2.43;;;;;;;19.84;33.65;100582.66;1874608;75;28200;-69
2022/01/26 19:52:56;;;;;;;2.60;2.40;;;;;;;19.87;33.65;100577.34;1887628;75;28121;-70
2022/01/26 19:55:45;;;;;;;2.90;2.70;;;;;;;19.82;33.66;100574.34;1865318;76;28191;-69
2022/01/26 19:58:34;;;;;;;2.80;2.60;;;;;;;19.85;33.65;100572.09;1857410;77;28782;-70
2022/01/26 20:01:23;;;;;;;2.70;2.50;;;;;;;19.85;33.61;100584.88;1856987;77;28182;-69
2022/01/26 20:04:11;;;;;;;2.80;2.60;;;;;;;19.85;33.65;100588.97;1890928;75;28248;-71
2022/01/26 20:07:04;;;;;;;2.72;2.52;;;;;;;19.83;33.68;100591.05;1885337;75;28152;-69
2022/01/26 20:09:54;;;;;;;2.60;2.40;;;;;;;19.85;33.61;100597.15;1869207;76;28180;-71
2022/01/26 20:12:46;;;;;;;2.77;2.57;;;;;;;19.86;33.62;100601.58;1890622;75;28759;-71
2022/01/26 20:15:31;;;;;;;2.70;2.50;;;;;;;19.89;33.53;100602.03;1864437;75;28210;-71
2022/01/26 20:18:24;;;;;;;2.92;2.60;;;;;;;19.85;33.57;100601.23;1873586;75;28133;-70
2022/01/26 20:21:12;;;;;;;2.70;2.50;;;;;;;19.86;33.56;100602.40;1857512;77;28121;-69
2022/01/26 20:24:00;;;;;;;2.80;2.60;;;;;;;19.84;33.58;100604.48;1879086;75;28293;-71
2022/01/26 20:26:52;;;;;;;3.10;2.65;;;;;;;19.83;33.56;100602.80;1889864;75;28125;-70
2022/01/26 20:29:46;;;;;;;3.00;2.67;;;;;;;19.87;33.55;100606.83;1889722;75;28562;-71
2022/01/26 20:32:32;;;;;;;2.55;2.37;;;;;;;19.83;33.58;100607.41;1855889;75;28216;-69
2022/01/26 20:35:21;;;;;;;2.80;2.60;;;;;;;19.85;33.53;100595.27;1866809;75;28200;-69
2022/01/26 20:38:11;;;;;;;2.98;2.77;;;;;;;19.85;33.52;100600.73;1864604;76;28807;-69
2022/01/26 20:40:59;;;;;;;2.80;2.60;;;;;;;19.84;33.49;100599.02;1871361;75;28203;-71
2022/01/26 20:43:48;;;;;;;3.00;2.80;;;;;;;19.83;33.54;100597.34;1869430;75;28253;-69
2022/01/26 20:46:36;;;;;;;2.80;2.60;;;;;;;19.83;33.52;100595.98;1868227;76;28198;-70
2022/01/26 20:49:25;;;;;;;2.97;2.77;;;;;;;19.83;33.54;100595.13;1875958;75;28117;-69
2022/01/26 20:52:13;;;;;;;3.22;2.92;;;;;;;19.84;33.53;100603.11;1886515;75;28108;-69
2022/01/26 20:55:03;;;;;;;2.95;2.72;;;;;;;19.84;33.48;100604.98;1890907;75;28186;-70
2022/01/26 20:57:52;;;;;;;3.00;2.80;;;;;;;19.83;33.50;100606.04;1891105;75;28120;-69
2022/01/26 21:00:41;;;;;;;2.90;2.70;;;;;;;19.80;33.51;100610.50;1869149;76;28231;-70
2022/01/26 21:03:29;;;;;;;2.90;2.70;;;;;;;19.81;33.48;100614.39;1883584;75;28195;-69
2022/01/26 21:06:18;;;;;;;2.80;2.60;;;;;;;19.77;33.49;100601.33;1867913;75;30120;-70
2022/01/26 21:09:06;;;;;;;2.90;2.65;;;;;;;19.83;33.46;100612.86;1875965;75;28272;-69
2022/01/26 21:11:55;;;;;;;2.90;2.70;;;;;;;19.80;33.49;100617.31;1873481;75;28164;-69
2022/01/26 21:14:44;;;;;;;2.80;2.60;;;;;;;19.78;33.53;100618.88;1882360;75;28162;-69
2022/01/26 21:17:33;;;;;;;2.83;2.62;;;;;;;19.78;33.53;100620.23;1867822;75;28101;-69
2022/01/26 21:20:22;;;;;;;2.72;2.52;;;;;;;19.80;33.51;100624.13;1880179;75;28230;-69
2022/01/26 21:23:11;;;;;;;2.92;2.72;;;;;;;19.79;33.48;100630.64;1889446;75;28146;-70
2022/01/26 21:26:01;;;;;;;2.92;2.72;;;;;;;19.79;33.51;100630.09;1889535;75;28207;-70
2022/01/26 21:28:50;;;;;;;3.42;3.12;;;;;;;19.80;33.45;100630.95;1880124;75;28101;-70
2022/01/26 21:31:38;;;;;;;3.10;2.72;;;;;;;19.81;33.48;100635.38;1867793;75;28238;-70
2022/01/26 21:34:26;;;;;;;3.00;2.80;;;;;;;19.81;33.45;100636.74;1883994;75;28111;-69
2022/01/26 21:37:14;;;;;;;3.00;2.80;;;;;;;19.80;33.43;100637.25;1869377;75;28245;-70
2022/01/26 21:40:05;;;;;;;3.17;2.98;;;;;;;19.81;33.39;100634.84;1877409;75;28148;-69
2022/01/26 21:42:53;;;;;;;3.00;2.80;;;;;;;19.80;33.42;100630.95;1877296;75;28190;-71
2022/01/26 21:45:42;;;;;;;3.02;2.83;;;;;;;19.77;33.45;100623.13;1868984;76;28121;-71
2022/01/26 21:48:31;;;;;;;3.08;2.87;;;;;;;19.78;33.42;100622.11;1865800;75;28588;-71
2022/01/26 21:51:20;;;;;;;2.70;2.60;;;;;;;19.81;33.39;100622.56;1876901;75;28326;-70
2022/01/26 21:54:09;;;;;;;3.08;2.87;;;;;;;19.78;33.41;100620.23;1865309;76;31285;-69
2022/01/26 21:56:58;;;;;;;3.27;2.95;;;;;;;19.79;33.38;100615.64;1862725;76;28258;-70
2022/01/26 21:59:46;;;;;;;3.00;2.80;;;;;;;19.82;33.38;100613.87;1887607;75;28125;-71
2022/01/26 22:02:35;;;;;;;3.12;2.90;;;;;;;19.78;33.35;100611.21;1878862;75;28101;-70
2022/01/26 22:05:25;;;;;;;3.17;2.98;;;;;;;19.79;33.38;100611.01;1874947;75;28180;-71
2022/01/26 22:08:16;;;;;;;3.17;2.97;;;;;;;19.79;33.39;100618.37;1889989;75;28265;-70
2022/01/26 22:11:04;;;;;;;3.12;2.92;;;;;;;19.80;33.32;100620.04;1869167;75;28286;-70
2022/01/26 22:13:53;;;;;;;4.30;3.87;;;;;;;19.75;33.40;100618.39;1865368;75;28143;-69
2022/01/26 22:16:41;;;;;;;3.33;3.03;;;;;;;19.62;33.27;100613.63;1884833;75;28179;-69
2022/01/26 22:19:29;;;;;;;3.50;3.20;;;;;;;19.66;33.31;100609.98;1878868;75;28157;-70
2022/01/26 22:22:18;;;;;;;3.40;3.10;;;;;;;19.71;33.31;100621.17;1876725;75;28119;-68
2022/01/26 22:25:09;;;;;;;3.60;3.30;;;;;;;19.62;33.27;100613.63;1867105;75;28180;-68
2022/01/26 22:28:00;;;;;;;3.67;3.37;;;;;;;19.67;33.34;100618.00;1870589;75;28114;-69
2022/01/26 22:30:49;;;;;;;4.42;3.22;;;;;;;19.68;33.31;100622.91;1898106;75;28187;-68
2022/01/26 22:33:37;;;;;;;4.17;3.40;;;;;;;19.72;33.27;100618.25;1872210;75;28497;-68
2022/01/26 22:36:26;;;;;;;3.58;3.27;;;;;;;19.73;33.29;100615.87;1861211;75;28243;-68
2022/01/26 22:39:14;;;;;;;4.17;3.45;;;;;;;19.75;33.27;100622.48;1859880;75;28243;-67
2022/01/26 22:42:04;;;;;;;3.43;3.20;;;;;;;19.78;33.27;100625.70;1873819;75;28169;-69
2022/01/26 22:44:53;;;;;;;3.65;3.35;;;;;;;19.82;33.26;100624.78;1890983;75;28160;-68
2022/01/26 22:47:42;;;;;;;3.60;3.30;;;;;;;19.82;33.32;100628.36;1863029;75;28217;-67
2022/01/26 22:50:31;;;;;;;3.40;3.20;;;;;;;19.84;33.30;100636.34;1858601;75;38704;-68
2022/01/26 22:53:20;;;;;;;3.37;3.10;;;;;;;19.81;33.35;100632.11;1867073;75;28164;-69
2022/01/26 22:56:09;;;;;;;3.55;3.25;;;;;;;19.82;33.38;100639.78;1891370;74;28245;-68
2022/01/26 22:58:58;;;;;;;3.67;3.37;;;;;;;19.81;33.39;100644.37;1864244;75;28648;-67
2022/01/26 23:02:50;;;;;;;3.70;3.30;;;;;;;19.82;33.38;100643.87;1883939;75;28122;-70
2022/01/26 23:05:01;;;;;;;3.60;3.30;;;;;;;19.83;33.42;100646.94;1817658;78;28264;-68
2022/01/26 23:07:35;;;;;;;3.65;3.17;;;;;;;19.82;33.44;100647.95;1823126;77;28338;-70
2022/01/26 23:10:24;;;;;;;3.77;3.40;;;;;;;19.82;33.43;100642.50;1810709;78;28326;-68
2022/01/26 23:13:12;;;;;;;3.90;3.30;;;;;;;19.82;33.44;100642.50;1844451;77;28759;-69
2022/01/26 23:16:02;;;;;;;3.47;3.20;;;;;;;19.80;33.46;100646.80;1830357;77;28235;-67
2022/01/26 23:18:52;;;;;;;3.62;3.33;;;;;;;19.83;33.49;100648.30;1835138;77;28369;-67
2022/01/26 23:21:41;;;;;;;3.80;3.13;;;;;;;19.81;33.48;100640.29;1849282;77;28727;-69
2022/01/26 23:24:37;;;;;;;3.63;3.33;;;;;;;19.82;33.53;100652.05;1831220;77;28277;-68
2022/01/26 23:27:34;;;;;;;3.83;3.35;;;;;;;19.83;33.50;100653.24;1837709;77;28235;-68
2022/01/26 23:36:40;;;;;;;4.65;3.27;;;;;;;19.84;33.46;100648.61;1867401;76;28296;-68
2022/01/26 23:43:05;;;;;;;3.70;3.40;;;;;;;19.83;33.50;100645.06;1868828;76;28297;-67
